createdAt,value
2022-12-25T00:00:05.880Z,22.42
2022-12-25T00:02:33.053Z,23.75
2022-12-25T00:05:00.280Z,23.52
2022-12-25T00:07:27.363Z,22.58
2022-12-25T00:09:54.393Z,22.55
2022-12-25T00:12:22.433Z,22.20
2022-12-25T00:14:49.463Z,23.98
2022-12-25T00:17:16.606Z,24.38
2022-12-25T00:19:43.573Z,24.55
2022-12-25T00:22:10.407Z,25.75
2022-12-25T00:24:37.630Z,27.42
2022-12-25T00:27:04.502Z,27.45
2022-12-25T00:29:31.569Z,27.30
2022-12-25T00:31:58.555Z,26.40
2022-12-25T00:34:25.612Z,26.17
2022-12-25T00:36:52.908Z,26.73
2022-12-25T00:39:19.904Z,25.48
2022-12-25T00:42:05.154Z,29.48
2022-12-25T00:44:32.247Z,26.85
2022-12-25T00:46:59.386Z,25.70
2022-12-25T00:49:26.486Z,25.80
2022-12-25T00:51:53.805Z,26.17
2022-12-25T00:54:20.938Z,26.17
2022-12-25T00:56:48.018Z,26.30
2022-12-25T00:59:15.046Z,25.13
2022-12-25T01:01:42.316Z,25.77
2022-12-25T01:04:10.856Z,26.15
2022-12-25T01:06:38.057Z,25.42
2022-12-25T01:09:23.815Z,26.55
2022-12-25T01:11:50.830Z,26.58
2022-12-25T01:14:17.786Z,26.75
2022-12-25T01:16:44.896Z,26.63
2022-12-25T01:19:12.085Z,26.13
2022-12-25T01:21:39.404Z,27.00
2022-12-25T01:24:07.040Z,25.45
2022-12-25T01:26:33.965Z,30.23
2022-12-25T01:29:02.685Z,29.70
2022-12-25T01:31:29.744Z,32.78
2022-12-25T01:33:56.924Z,29.65
2022-12-25T01:36:25.767Z,29.65
2022-12-25T01:38:54.252Z,28.50
2022-12-25T01:41:23.442Z,28.75
2022-12-25T01:44:16.493Z,26.92
2022-12-25T01:46:44.769Z,26.75
2022-12-25T01:49:14.444Z,27.00
2022-12-25T01:52:02.729Z,28.58
2022-12-25T01:54:36.506Z,29.40
2022-12-25T01:57:07.253Z,30.40
2022-12-25T01:59:34.515Z,28.85
2022-12-25T02:02:03.816Z,26.83
2022-12-25T02:04:39.701Z,25.60
2022-12-25T02:07:32.779Z,25.63
2022-12-25T02:09:59.810Z,24.80
2022-12-25T02:12:29.434Z,24.60
2022-12-25T02:15:05.013Z,26.10
2022-12-25T02:17:51.142Z,25.85
2022-12-25T02:20:46.412Z,25.35
2022-12-25T02:23:23.965Z,25.13
2022-12-25T02:25:59.969Z,24.65
2022-12-25T02:28:35.190Z,25.70
2022-12-25T02:31:09.310Z,24.88
2022-12-25T02:34:07.348Z,24.95
2022-12-25T02:37:06.725Z,25.08
2022-12-25T02:39:59.857Z,24.20
2022-12-25T02:43:14.442Z,26.00
2022-12-25T02:46:00.083Z,25.92
2022-12-25T02:48:47.907Z,28.33
2022-12-25T02:51:35.142Z,28.75
2022-12-25T02:54:30.709Z,28.60
2022-12-25T02:57:17.054Z,26.73
2022-12-25T03:00:06.540Z,27.98
2022-12-25T03:02:52.383Z,30.13
2022-12-25T03:05:41.129Z,30.13
2022-12-25T03:08:11.706Z,30.10
2022-12-25T03:10:59.510Z,28.92
2022-12-25T03:13:34.273Z,28.98
2022-12-25T03:16:20.182Z,30.77
2022-12-25T03:18:47.267Z,28.63
2022-12-25T03:21:33.108Z,30.48
2022-12-25T03:24:20.293Z,28.90
2022-12-25T03:26:56.527Z,30.35
2022-12-25T03:29:48.397Z,29.30
2022-12-25T03:32:40.385Z,30.13
2022-12-25T03:38:35.175Z,29.25
2022-12-25T03:41:40.950Z,27.95
2022-12-25T03:45:05.007Z,31.17
2022-12-25T03:47:59.889Z,30.38
2022-12-25T03:51:04.988Z,31.15
2022-12-25T03:53:57.068Z,31.20
2022-12-25T03:59:27.846Z,27.90
2022-12-25T04:02:13.560Z,29.63
2022-12-25T04:04:59.173Z,30.20
2022-12-25T04:07:44.919Z,31.10
2022-12-25T04:10:30.487Z,28.90
2022-12-25T04:13:16.248Z,31.20
2022-12-25T04:16:01.950Z,30.42
2022-12-25T04:18:47.717Z,26.30
2022-12-25T04:21:33.289Z,26.08
2022-12-25T04:24:18.973Z,25.55
2022-12-25T04:27:04.752Z,24.55
2022-12-25T04:29:50.349Z,26.83
2022-12-25T04:32:36.030Z,24.23
2022-12-25T04:35:21.969Z,25.42
2022-12-25T04:37:48.970Z,24.17
2022-12-25T04:40:16.228Z,24.30
2022-12-25T04:42:43.247Z,26.35
2022-12-25T04:45:10.747Z,25.48
2022-12-25T04:47:37.731Z,25.27
2022-12-25T04:50:05.088Z,27.13
2022-12-25T04:52:36.509Z,25.27
2022-12-25T04:55:04.737Z,26.60
2022-12-25T04:57:31.786Z,25.42
2022-12-25T04:59:58.845Z,27.88
2022-12-25T05:02:26.389Z,27.45
2022-12-25T05:04:53.499Z,26.85
2022-12-25T05:07:20.407Z,30.30
2022-12-25T05:09:47.387Z,30.15
2022-12-25T05:12:14.260Z,28.05
2022-12-25T05:14:41.376Z,27.98
2022-12-25T05:17:08.309Z,26.80
2022-12-25T05:19:35.337Z,26.67
2022-12-25T05:22:02.377Z,28.50
2022-12-25T05:24:29.444Z,28.73
2022-12-25T05:26:56.433Z,27.02
2022-12-25T05:29:23.410Z,27.23
2022-12-25T05:31:50.450Z,28.80
2022-12-25T05:34:17.520Z,30.50
2022-12-25T05:36:44.587Z,27.52
2022-12-25T05:39:11.648Z,29.38
2022-12-25T05:41:38.877Z,33.75
2022-12-25T05:44:05.835Z,28.08
2022-12-25T05:46:32.842Z,28.48
2022-12-25T05:48:59.807Z,31.85
2022-12-25T05:51:26.807Z,28.58
2022-12-25T05:53:53.706Z,29.17
2022-12-25T05:56:20.737Z,28.92
2022-12-25T05:58:47.671Z,36.42
2022-12-25T06:01:20.937Z,31.02
2022-12-25T06:03:48.445Z,29.27
2022-12-25T06:06:15.632Z,28.27
2022-12-25T06:08:43.156Z,28.85
2022-12-25T06:11:10.770Z,29.75
2022-12-25T06:13:37.965Z,35.55
2022-12-25T06:16:06.490Z,32.83
2022-12-25T06:18:46.871Z,31.52
2022-12-25T06:21:15.030Z,32.05
2022-12-25T06:23:42.282Z,30.35
2022-12-25T06:26:15.492Z,30.20
2022-12-25T06:28:43.232Z,29.73
2022-12-25T06:31:13.316Z,30.58
2022-12-25T06:33:40.986Z,31.30
2022-12-25T06:36:25.271Z,34.75
2022-12-25T06:38:52.690Z,32.80
2022-12-25T06:41:24.019Z,32.42
2022-12-25T06:43:53.097Z,31.00
2022-12-25T06:46:21.569Z,30.55
2022-12-25T06:48:50.046Z,31.33
2022-12-25T06:51:25.245Z,30.88
2022-12-25T06:53:52.709Z,32.00
2022-12-25T06:56:24.303Z,30.50
2022-12-25T06:58:57.256Z,30.13
2022-12-25T07:01:44.691Z,28.90
2022-12-25T07:04:35.737Z,30.30
2022-12-25T07:07:08.735Z,29.80
2022-12-25T07:09:39.093Z,28.83
2022-12-25T07:12:11.689Z,27.65
2022-12-25T07:14:38.759Z,27.92
2022-12-25T07:17:05.725Z,30.98
2022-12-25T07:19:32.765Z,28.85
2022-12-25T07:21:59.665Z,28.75
2022-12-25T07:24:26.692Z,28.00
2022-12-25T07:26:53.803Z,27.33
2022-12-25T07:29:20.934Z,32.83
2022-12-25T07:31:47.948Z,35.50
2022-12-25T07:34:16.839Z,34.40
2022-12-25T07:36:43.715Z,36.03
2022-12-25T07:39:11.418Z,33.03
2022-12-25T07:41:38.390Z,30.25
2022-12-25T07:44:15.017Z,30.15
2022-12-25T07:46:42.105Z,30.48
2022-12-25T07:49:09.210Z,29.55
2022-12-25T07:51:36.137Z,32.55
2022-12-25T07:54:03.130Z,31.75
2022-12-25T07:56:30.064Z,32.53
2022-12-25T07:58:57.026Z,34.83
2022-12-25T08:01:27.042Z,32.95
2022-12-25T08:03:56.536Z,34.63
2022-12-25T08:06:26.973Z,36.20
2022-12-25T08:08:54.019Z,34.50
2022-12-25T08:11:21.007Z,34.95
2022-12-25T08:13:48.082Z,32.70
2022-12-25T08:16:15.352Z,29.85
2022-12-25T08:18:43.426Z,32.30
2022-12-25T08:21:18.354Z,32.03
2022-12-25T08:23:47.417Z,31.20
2022-12-25T08:26:16.769Z,33.90
2022-12-25T08:28:43.716Z,34.88
2022-12-25T08:31:20.233Z,34.55
2022-12-25T08:33:48.645Z,35.85
2022-12-25T08:36:16.500Z,35.80
2022-12-25T08:38:43.734Z,37.08
2022-12-25T08:41:14.706Z,36.88
2022-12-25T08:43:41.684Z,36.93
2022-12-25T08:46:08.985Z,37.63
2022-12-25T08:48:36.418Z,40.17
2022-12-25T08:51:04.268Z,37.33
2022-12-25T08:53:31.295Z,35.22
2022-12-25T08:56:05.416Z,36.28
2022-12-25T08:58:32.844Z,36.05
2022-12-25T09:01:00.225Z,36.03
2022-12-25T09:03:28.084Z,36.53
2022-12-25T09:05:55.596Z,34.83
2022-12-25T09:08:22.819Z,35.45
2022-12-25T09:10:49.986Z,35.35
2022-12-25T09:13:16.984Z,34.80
2022-12-25T09:15:43.979Z,35.28
2022-12-25T09:18:11.004Z,35.85
2022-12-25T09:20:37.944Z,35.90
2022-12-25T09:23:09.961Z,38.63
2022-12-25T09:25:40.391Z,39.78
2022-12-25T09:28:07.296Z,44.58
2022-12-25T09:30:34.556Z,43.05
2022-12-25T09:33:01.666Z,41.75
2022-12-25T09:35:28.574Z,42.42
2022-12-25T09:37:55.488Z,40.83
2022-12-25T09:40:23.400Z,43.13
2022-12-25T09:42:53.925Z,43.30
2022-12-25T09:45:39.881Z,44.75
2022-12-25T09:48:06.978Z,43.42
2022-12-25T09:50:58.669Z,45.25
2022-12-25T09:53:27.856Z,32.05
2022-12-25T09:56:18.311Z,43.67
2022-12-25T09:58:45.368Z,43.00
2022-12-25T10:01:36.885Z,39.17
2022-12-25T10:04:29.830Z,39.25
2022-12-25T10:07:15.489Z,38.78
2022-12-25T10:10:01.094Z,45.63
2022-12-25T10:12:54.172Z,44.15
2022-12-25T10:15:54.742Z,39.45
2022-12-25T10:18:36.850Z,41.38
2022-12-25T10:21:09.468Z,44.33
2022-12-25T10:24:07.786Z,41.33
2022-12-25T10:26:35.764Z,47.25
2022-12-25T10:29:13.967Z,41.42
2022-12-25T10:31:44.190Z,37.70
2022-12-25T10:34:12.580Z,39.17
2022-12-25T10:36:39.717Z,43.28
2022-12-25T10:39:06.813Z,42.60
2022-12-25T10:42:11.004Z,44.22
2022-12-25T10:44:38.016Z,40.47
2022-12-25T10:47:05.560Z,39.85
2022-12-25T10:49:35.718Z,39.97
2022-12-25T10:52:04.150Z,39.55
2022-12-25T10:54:35.808Z,41.00
2022-12-25T10:57:08.817Z,36.78
2022-12-25T10:59:48.608Z,34.38
2022-12-25T11:02:30.309Z,32.58
2022-12-25T11:05:09.933Z,32.78
2022-12-25T11:07:46.829Z,34.30
2022-12-25T11:10:23.815Z,38.28
2022-12-25T11:12:51.225Z,45.50
2022-12-25T11:15:51.051Z,46.08
2022-12-25T11:18:22.048Z,38.28
2022-12-25T11:20:49.863Z,41.83
2022-12-25T11:23:21.052Z,42.17
2022-12-25T11:26:07.654Z,42.40
2022-12-25T11:28:37.605Z,43.08
2022-12-25T11:31:13.211Z,40.63
2022-12-25T11:33:55.968Z,39.70
2022-12-25T11:36:45.596Z,42.70
2022-12-25T11:39:24.799Z,44.80
2022-12-25T11:41:58.980Z,44.75
2022-12-25T11:44:35.785Z,44.95
2022-12-25T11:47:13.111Z,41.30
2022-12-25T11:49:50.303Z,41.00
2022-12-25T11:52:19.115Z,39.75
2022-12-25T11:54:53.635Z,40.45
2022-12-25T11:57:22.821Z,40.35
2022-12-25T12:00:14.072Z,47.33
2022-12-25T12:03:01.461Z,42.13
2022-12-25T12:05:42.809Z,41.35
2022-12-25T12:08:10.944Z,39.67
2022-12-25T12:10:58.906Z,40.10
2022-12-25T12:13:29.086Z,39.92
2022-12-25T12:15:56.692Z,41.15
2022-12-25T12:18:26.685Z,41.33
2022-12-25T12:21:11.829Z,40.05
2022-12-25T12:24:01.029Z,38.70
2022-12-25T12:26:29.972Z,38.30
2022-12-25T12:29:01.345Z,39.45
2022-12-25T12:31:43.783Z,39.03
2022-12-25T12:34:34.476Z,40.95
2022-12-25T12:37:05.432Z,39.97
2022-12-25T12:39:37.772Z,41.65
2022-12-25T12:42:18.040Z,41.70
2022-12-25T12:44:45.966Z,42.28
2022-12-25T12:47:44.215Z,44.65
2022-12-25T12:50:33.415Z,44.33
2022-12-25T12:53:10.586Z,48.13
2022-12-25T12:55:37.647Z,49.42
2022-12-25T12:58:06.253Z,47.67
2022-12-25T13:00:49.289Z,46.50
2022-12-25T13:03:39.798Z,45.50
2022-12-25T13:06:16.165Z,48.17
2022-12-25T13:09:07.789Z,48.95
2022-12-25T13:11:40.613Z,49.45
2022-12-25T13:14:15.410Z,51.40
2022-12-25T13:16:44.395Z,53.83
2022-12-25T13:19:15.127Z,58.45
2022-12-25T13:21:54.307Z,57.00
2022-12-25T13:24:29.146Z,59.05
2022-12-25T13:26:56.287Z,59.15
2022-12-25T13:29:36.484Z,62.10
2022-12-25T13:32:05.876Z,56.70
2022-12-25T13:34:34.053Z,59.90
2022-12-25T13:37:07.883Z,61.28
2022-12-25T13:39:36.747Z,62.85
2022-12-25T13:42:06.083Z,58.30
2022-12-25T13:44:59.279Z,60.80
2022-12-25T13:47:31.265Z,61.25
2022-12-25T13:49:59.943Z,65.20
2022-12-25T13:52:45.621Z,66.70
2022-12-25T13:55:13.158Z,62.40
2022-12-25T13:58:01.706Z,65.15
2022-12-25T14:00:28.809Z,59.67
2022-12-25T14:02:55.987Z,64.57
2022-12-25T14:05:37.964Z,64.18
2022-12-25T14:08:24.776Z,58.15
2022-12-25T14:10:52.839Z,62.72
2022-12-25T14:13:22.820Z,64.35
2022-12-25T14:15:51.287Z,62.88
2022-12-25T14:18:19.751Z,58.80
2022-12-25T14:21:03.340Z,63.08
2022-12-25T14:23:40.731Z,68.80
2022-12-25T14:26:07.764Z,66.13
2022-12-25T14:28:36.575Z,67.40
2022-12-25T14:31:04.967Z,58.50
2022-12-25T14:33:37.058Z,68.18
2022-12-25T14:36:04.453Z,62.33
2022-12-25T14:38:35.130Z,65.03
2022-12-25T14:41:33.815Z,66.13
2022-12-25T14:44:03.896Z,72.43
2022-12-25T14:46:32.381Z,80.13
2022-12-25T14:49:04.797Z,71.53
2022-12-25T14:51:33.410Z,77.25
2022-12-25T14:54:05.686Z,63.92
2022-12-25T14:56:39.345Z,80.32
2022-12-25T14:59:10.214Z,72.70
2022-12-25T15:01:39.872Z,72.13
2022-12-25T15:04:12.651Z,66.50
2022-12-25T15:06:42.064Z,69.15
2022-12-25T15:09:16.850Z,60.78
2022-12-25T15:11:43.774Z,68.47
2022-12-25T15:14:10.646Z,62.28
2022-12-25T15:16:42.188Z,71.57
2022-12-25T15:19:10.449Z,69.00
2022-12-25T15:21:37.824Z,70.75
2022-12-25T15:24:04.913Z,62.05
2022-12-25T15:26:32.669Z,67.85
2022-12-25T15:28:59.564Z,67.88
2022-12-25T15:31:32.120Z,70.68
2022-12-25T15:34:02.215Z,71.80
2022-12-25T15:36:29.458Z,70.25
2022-12-25T15:38:56.578Z,72.28
2022-12-25T15:41:55.547Z,70.88
2022-12-25T15:44:23.263Z,58.53
2022-12-25T15:46:50.320Z,73.03
2022-12-25T15:49:17.737Z,69.15
2022-12-25T15:51:45.575Z,67.07
2022-12-25T15:54:12.764Z,65.00
2022-12-25T15:56:49.116Z,58.95
2022-12-25T15:59:17.886Z,72.97
2022-12-25T16:01:50.605Z,63.17
2022-12-25T16:04:18.338Z,76.28
2022-12-25T16:06:45.411Z,73.40
2022-12-25T16:09:13.450Z,66.10
2022-12-25T16:11:40.969Z,67.78
2022-12-25T16:14:08.389Z,82.60
2022-12-25T16:16:35.836Z,72.25
2022-12-25T16:19:03.342Z,63.45
2022-12-25T16:21:38.747Z,77.55
2022-12-25T16:24:06.159Z,67.07
2022-12-25T16:26:33.564Z,68.22
2022-12-25T16:29:06.776Z,66.65
2022-12-25T16:31:35.048Z,62.03
2022-12-25T16:34:02.461Z,68.30
2022-12-25T16:36:29.469Z,68.60
2022-12-25T16:38:56.446Z,67.78
2022-12-25T16:41:23.461Z,72.05
2022-12-25T16:43:50.393Z,66.72
2022-12-25T16:46:19.612Z,71.72
2022-12-25T16:48:46.873Z,67.70
2022-12-25T16:51:16.609Z,57.45
2022-12-25T16:53:44.611Z,64.80
2022-12-25T16:56:17.268Z,68.18
2022-12-25T16:58:46.810Z,67.15
2022-12-25T17:01:17.212Z,65.90
2022-12-25T17:03:44.663Z,70.90
2022-12-25T17:06:16.408Z,61.25
2022-12-25T17:08:44.117Z,64.40
2022-12-25T17:11:11.423Z,61.83
2022-12-25T17:13:38.456Z,60.55
2022-12-25T17:16:23.098Z,59.97
2022-12-25T17:19:16.020Z,58.95
2022-12-25T17:21:43.043Z,61.92
2022-12-25T17:24:10.016Z,64.45
2022-12-25T17:26:37.118Z,67.13
2022-12-25T17:29:04.149Z,59.65
2022-12-25T17:31:31.199Z,61.28
2022-12-25T17:34:00.307Z,63.97
2022-12-25T17:36:27.786Z,65.13
2022-12-25T17:38:54.785Z,60.85
2022-12-25T17:41:22.030Z,68.55
2022-12-25T17:43:49.042Z,66.22
2022-12-25T17:46:18.678Z,63.33
2022-12-25T17:48:46.374Z,59.63
2022-12-25T17:51:16.256Z,61.58
2022-12-25T17:53:45.570Z,63.42
2022-12-25T17:56:13.870Z,75.65
2022-12-25T17:58:40.879Z,63.72
2022-12-25T18:01:10.453Z,66.40
2022-12-25T18:03:37.717Z,74.40
2022-12-25T18:06:09.089Z,80.00
2022-12-25T18:08:39.543Z,74.95
2022-12-25T18:11:12.242Z,68.80
2022-12-25T18:13:40.767Z,76.18
2022-12-25T18:16:08.776Z,70.15
2022-12-25T18:18:35.882Z,72.00
2022-12-25T18:21:02.954Z,69.95
2022-12-25T18:23:30.082Z,73.50
2022-12-25T18:25:57.424Z,78.22
2022-12-25T18:28:24.455Z,70.22
2022-12-25T18:30:51.551Z,76.30
2022-12-25T18:33:18.489Z,70.18
2022-12-25T18:35:46.846Z,68.63
2022-12-25T18:38:14.524Z,78.38
2022-12-25T18:40:47.363Z,78.13
2022-12-25T18:43:15.617Z,71.60
2022-12-25T18:45:43.343Z,77.78
2022-12-25T18:48:11.226Z,71.95
2022-12-25T18:50:40.647Z,77.78
2022-12-25T18:53:08.039Z,62.92
2022-12-25T18:55:36.474Z,72.90
2022-12-25T18:58:04.230Z,70.25
2022-12-25T19:00:31.553Z,71.80
2022-12-25T19:02:59.540Z,74.85
2022-12-25T19:05:27.226Z,69.38
2022-12-25T19:07:54.719Z,66.45
2022-12-25T19:10:22.545Z,67.25
2022-12-25T19:12:50.832Z,71.03
2022-12-25T19:15:18.714Z,72.53
2022-12-25T19:17:46.409Z,69.13
2022-12-25T19:20:14.316Z,59.63
2022-12-25T19:22:41.985Z,61.63
2022-12-25T19:25:09.532Z,64.20
2022-12-25T19:27:36.775Z,63.70
2022-12-25T19:30:04.151Z,65.50
2022-12-25T19:32:31.342Z,59.70
2022-12-25T19:34:59.842Z,62.92
2022-12-25T19:37:28.104Z,66.25
2022-12-25T19:39:59.601Z,57.28
2022-12-25T19:42:27.344Z,69.80
2022-12-25T19:44:57.619Z,70.57
2022-12-25T19:47:25.775Z,72.45
2022-12-25T19:49:55.553Z,70.32
2022-12-25T19:52:26.667Z,70.05
2022-12-25T19:54:56.149Z,68.22
2022-12-25T19:57:24.829Z,63.72
2022-12-25T19:59:52.668Z,60.97
2022-12-25T20:02:20.227Z,68.85
2022-12-25T20:04:48.209Z,68.38
2022-12-25T20:07:18.895Z,61.60
2022-12-25T20:09:47.255Z,72.38
2022-12-25T20:12:16.625Z,64.40
2022-12-25T20:14:44.420Z,70.25
2022-12-25T20:17:15.823Z,65.68
2022-12-25T20:19:43.737Z,65.53
2022-12-25T20:22:11.051Z,64.68
2022-12-25T20:24:38.152Z,65.30
2022-12-25T20:27:05.298Z,63.45
2022-12-25T20:29:32.319Z,73.07
2022-12-25T20:31:59.410Z,70.30
2022-12-25T20:34:26.373Z,74.75
2022-12-25T20:36:53.330Z,74.15
2022-12-25T20:39:20.519Z,67.22
2022-12-25T20:41:47.863Z,63.15
2022-12-25T20:44:14.980Z,64.45
2022-12-25T20:46:43.095Z,64.32
2022-12-25T20:49:13.215Z,73.93
2022-12-25T20:51:42.256Z,64.50
2022-12-25T20:54:09.989Z,65.05
2022-12-25T20:56:37.282Z,66.70
2022-12-25T20:59:05.710Z,68.85
2022-12-25T21:01:33.174Z,62.78
2022-12-25T21:04:00.337Z,75.45
2022-12-25T21:06:28.678Z,60.35
2022-12-25T21:09:17.291Z,59.42
2022-12-25T21:11:44.821Z,62.50
2022-12-25T21:14:12.174Z,71.20
2022-12-25T21:16:39.400Z,62.97
2022-12-25T21:19:07.324Z,69.72
2022-12-25T21:21:36.199Z,67.03
2022-12-25T21:24:04.249Z,70.32
2022-12-25T21:26:33.326Z,69.93
2022-12-25T21:29:05.522Z,69.63
2022-12-25T21:31:56.333Z,72.38
2022-12-25T21:34:26.180Z,75.75
2022-12-25T21:36:54.427Z,70.35
2022-12-25T21:39:22.496Z,81.63
2022-12-25T21:41:49.616Z,73.00
2022-12-25T21:44:17.913Z,76.15
2022-12-25T21:46:45.874Z,67.72
2022-12-25T21:49:33.256Z,77.15
2022-12-25T21:52:13.077Z,79.35
2022-12-25T21:54:41.583Z,71.88
2022-12-25T21:57:09.661Z,78.32
2022-12-25T21:59:38.906Z,79.80
2022-12-25T22:02:11.646Z,71.88
2022-12-25T22:04:39.430Z,72.20
2022-12-25T22:07:21.620Z,75.32
2022-12-25T22:12:38.329Z,63.28
2022-12-25T22:15:07.738Z,75.93
2022-12-25T22:18:00.874Z,77.60
2022-12-25T22:20:36.472Z,79.88
2022-12-25T22:23:04.320Z,73.65
2022-12-25T22:25:31.334Z,70.22
2022-12-25T22:27:58.437Z,77.90
2022-12-25T22:30:29.920Z,75.50
2022-12-25T22:32:57.300Z,74.43
2022-12-25T22:35:24.911Z,73.50
2022-12-25T22:37:53.495Z,70.30
2022-12-25T22:40:20.567Z,80.60
2022-12-25T22:42:47.625Z,73.10
2022-12-25T22:45:15.221Z,74.28
2022-12-25T22:47:42.441Z,76.97
2022-12-25T22:50:11.068Z,66.38
2022-12-25T22:52:38.374Z,70.75
2022-12-25T22:55:07.813Z,78.85
2022-12-25T22:57:35.582Z,72.50
2022-12-25T23:00:03.003Z,75.65
2022-12-25T23:02:30.046Z,55.20
2022-12-25T23:04:57.153Z,74.32
2022-12-25T23:07:24.013Z,76.30
2022-12-25T23:09:52.105Z,71.68
2022-12-25T23:12:37.356Z,75.63
2022-12-25T23:15:04.785Z,73.28
2022-12-25T23:17:50.385Z,70.22
2022-12-25T23:20:36.108Z,76.22
2022-12-25T23:23:22.027Z,80.88
2022-12-25T23:26:07.517Z,70.15
2022-12-25T23:28:57.717Z,74.35
2022-12-25T23:31:29.502Z,81.95
2022-12-25T23:36:23.783Z,78.80
2022-12-25T23:38:50.684Z,77.93
2022-12-25T23:41:17.639Z,75.22
2022-12-25T23:43:44.503Z,74.03
2022-12-25T23:46:11.474Z,78.40
2022-12-25T23:48:38.499Z,75.70
2022-12-25T23:51:06.239Z,78.88
2022-12-25T23:53:34.018Z,81.45
2022-12-25T23:56:01.131Z,77.15
2022-12-25T23:58:28.825Z,81.80
